createdAt,value
2023-03-14T00:02:31.999Z,98794.31
2023-03-14T00:07:36.145Z,98778.06
2023-03-14T00:12:39.073Z,98755.50
2023-03-14T00:17:45.809Z,98754.84
2023-03-14T00:22:48.415Z,98742.25
2023-03-14T00:27:52.511Z,98758.91
2023-03-14T00:32:56.518Z,98751.63
2023-03-14T00:37:59.142Z,98768.31
2023-03-14T00:43:01.737Z,98763.34
2023-03-14T00:48:05.677Z,98783.50
2023-03-14T00:53:08.242Z,98795.75
2023-03-14T00:58:12.009Z,98778.53
2023-03-14T01:03:17.278Z,98770.16
2023-03-14T01:08:19.939Z,98746.19
2023-03-14T01:13:22.518Z,98779.81
2023-03-14T01:18:26.936Z,98789.09
2023-03-14T01:23:29.638Z,98785.06
2023-03-14T01:28:32.446Z,98784.53
2023-03-14T01:33:37.160Z,98787.97
2023-03-14T01:38:41.540Z,98775.31
2023-03-14T01:43:47.175Z,98768.66
2023-03-14T01:48:58.960Z,98760.72
2023-03-14T01:54:09.369Z,98762.50
2023-03-14T01:59:12.990Z,98752.50
2023-03-14T02:04:19.524Z,98765.75
2023-03-14T02:09:22.985Z,98673.06
2023-03-14T02:14:32.583Z,98667.22
2023-03-14T02:20:09.851Z,98739.72
2023-03-14T02:25:23.594Z,98662.44
2023-03-14T02:30:30.555Z,98725.81
2023-03-14T02:35:37.252Z,98717.16
2023-03-14T02:40:40.053Z,98469.38
2023-03-14T02:45:47.443Z,98681.13
2023-03-14T02:50:56.936Z,98717.38
2023-03-14T02:56:00.160Z,98528.28
2023-03-14T03:01:05.784Z,98752.03
2023-03-14T03:06:09.278Z,98765.28
2023-03-14T03:11:12.032Z,98746.06
2023-03-14T03:16:16.375Z,98745.81
2023-03-14T03:21:26.433Z,98655.16
2023-03-14T03:26:29.444Z,98658.94
2023-03-14T03:31:33.744Z,98655.81
2023-03-14T03:36:37.211Z,98695.50
2023-03-14T03:41:39.986Z,98710.84
2023-03-14T03:46:50.317Z,98530.16
2023-03-14T03:51:54.696Z,98639.75
2023-03-14T03:56:57.785Z,98693.94
2023-03-14T04:02:02.106Z,98710.22
2023-03-14T04:07:08.112Z,98658.44
2023-03-14T04:12:13.478Z,98695.47
2023-03-14T04:17:34.260Z,98696.47
2023-03-14T04:22:37.111Z,98659.28
2023-03-14T04:27:39.938Z,98648.03
2023-03-14T04:32:58.828Z,98690.72
2023-03-14T04:38:03.785Z,98689.44
2023-03-14T04:43:12.205Z,98680.84
2023-03-14T04:48:25.908Z,98698.16
2023-03-14T04:53:36.000Z,98509.50
2023-03-14T04:58:42.292Z,98597.94
2023-03-14T05:03:46.602Z,98650.78
2023-03-14T05:09:21.408Z,98557.44
2023-03-14T05:14:36.764Z,98668.72
2023-03-14T05:20:02.066Z,98573.56
2023-03-14T05:25:28.017Z,98654.28
2023-03-14T05:30:53.887Z,98657.69
2023-03-14T05:36:08.184Z,98649.13
2023-03-14T05:41:32.498Z,98649.97
2023-03-14T05:46:48.778Z,98561.31
2023-03-14T05:52:11.371Z,98643.22
2023-03-14T05:57:23.688Z,98625.03
2023-03-14T06:02:41.040Z,98585.72
2023-03-14T06:07:58.624Z,98636.94
2023-03-14T06:13:04.902Z,98635.66
2023-03-14T06:18:10.406Z,98592.88
2023-03-14T06:23:18.227Z,98588.13
2023-03-14T06:28:25.887Z,98607.06
2023-03-14T06:33:29.800Z,98420.00
2023-03-14T06:38:34.331Z,98491.06
2023-03-14T06:43:37.433Z,98640.09
2023-03-14T06:48:42.186Z,98620.06
2023-03-14T07:30:36.920Z,98660.38
2023-03-14T07:35:48.253Z,98662.97
2023-03-14T07:40:52.806Z,98663.56
2023-03-14T07:45:59.737Z,98670.34
2023-03-14T07:51:02.753Z,98681.66
2023-03-14T07:56:05.679Z,98689.44
2023-03-14T08:01:09.644Z,98685.03
2023-03-14T08:06:12.268Z,98662.84
2023-03-14T08:11:14.899Z,98690.88
2023-03-14T08:16:19.149Z,98697.69
2023-03-14T08:21:21.951Z,98691.59
2023-03-14T08:26:24.578Z,98700.50
2023-03-14T08:31:28.709Z,98701.16
2023-03-14T08:36:32.105Z,98703.66
2023-03-14T08:41:40.871Z,98708.75
2023-03-14T08:46:44.827Z,98709.63
2023-03-14T08:51:47.453Z,98721.25
2023-03-14T08:56:50.063Z,98817.44
2023-03-14T09:01:54.133Z,98818.69
2023-03-14T09:06:58.830Z,98841.09
2023-03-14T09:12:01.496Z,98852.78
2023-03-14T09:17:06.761Z,98879.84
2023-03-14T09:22:09.355Z,98902.53
2023-03-14T09:27:12.009Z,98918.38
2023-03-14T09:32:15.954Z,98938.16
2023-03-14T09:37:20.945Z,98954.81
2023-03-14T09:42:28.693Z,98983.91
2023-03-14T09:47:34.454Z,98972.06
2023-03-14T09:52:42.489Z,99014.06
2023-03-14T09:57:48.360Z,99033.97
2023-03-14T10:02:56.469Z,99051.19
2023-03-14T10:07:59.293Z,99017.56
2023-03-14T10:13:12.868Z,99083.88
2023-03-14T10:18:17.175Z,99135.03
2023-03-14T10:23:25.496Z,99152.00
2023-03-14T10:28:29.895Z,99176.47
2023-03-14T10:33:37.582Z,99203.44
2023-03-14T10:38:40.188Z,99247.72
2023-03-14T10:43:44.433Z,99261.69
2023-03-14T10:48:50.521Z,99285.06
2023-03-14T10:53:59.230Z,99305.50
2023-03-14T10:59:02.372Z,99344.66
2023-03-14T11:04:28.073Z,99361.72
2023-03-14T11:09:36.869Z,99347.38
2023-03-14T11:14:46.133Z,99403.66
2023-03-14T11:20:02.095Z,99398.03
2023-03-14T11:25:20.020Z,99433.72
2023-03-14T11:30:31.797Z,99470.06
2023-03-14T11:35:41.990Z,99472.25
2023-03-14T11:40:46.621Z,99499.22
2023-03-14T11:45:53.109Z,99502.88
2023-03-14T11:50:59.676Z,99520.59
2023-03-14T11:56:02.812Z,99525.84
2023-03-14T12:01:14.125Z,99543.28
2023-03-14T12:06:24.104Z,99557.94
2023-03-14T12:11:35.893Z,99571.13
2023-03-14T12:16:41.585Z,99615.16
2023-03-14T12:21:53.013Z,99615.53
2023-03-14T12:26:57.656Z,99644.53
2023-03-14T12:32:23.870Z,99648.97
2023-03-14T12:37:36.777Z,99670.78
2023-03-14T12:42:47.195Z,99679.81
2023-03-14T12:47:56.284Z,99691.44
2023-03-14T12:53:38.490Z,99709.56
2023-03-14T12:58:46.014Z,99725.91
2023-03-14T13:03:54.524Z,99763.44
2023-03-14T13:08:59.639Z,99771.88
2023-03-14T13:14:03.518Z,99789.88
2023-03-14T13:19:17.068Z,99805.75
2023-03-14T13:24:25.486Z,99812.75
2023-03-14T13:29:32.147Z,99809.84
2023-03-14T13:34:36.485Z,99819.69
2023-03-14T13:39:42.668Z,99818.28
2023-03-14T13:44:46.846Z,99833.91
2023-03-14T13:49:51.829Z,99846.03
2023-03-14T13:54:59.498Z,99868.25
2023-03-14T14:00:07.850Z,99871.50
2023-03-14T14:05:12.953Z,99882.31
2023-03-14T14:10:17.331Z,99907.78
2023-03-14T14:15:24.212Z,99920.28
2023-03-14T14:20:33.370Z,99926.91
2023-03-14T14:25:42.158Z,99832.09
2023-03-14T14:30:45.771Z,99945.25
2023-03-14T14:35:56.038Z,99958.13
2023-03-14T14:41:04.483Z,99955.50
2023-03-14T14:46:09.907Z,99988.63
2023-03-14T14:51:13.269Z,99994.84
2023-03-14T14:56:23.252Z,100010.94
2023-03-14T15:01:27.626Z,100029.31
2023-03-14T15:06:31.950Z,100042.72
2023-03-14T15:11:35.866Z,100060.13
2023-03-14T15:16:38.569Z,100080.53
2023-03-14T15:21:41.426Z,100098.78
2023-03-14T15:26:45.940Z,100096.91
2023-03-14T15:31:48.605Z,100106.22
2023-03-14T15:36:51.212Z,100087.03
2023-03-14T15:41:55.109Z,100140.94
2023-03-14T15:46:57.697Z,100142.69
2023-03-14T15:52:00.443Z,100121.91
2023-03-14T15:57:04.702Z,100182.28
2023-03-14T16:02:07.502Z,100190.28
2023-03-14T16:07:10.064Z,100197.38
2023-03-14T16:12:14.025Z,100211.63
2023-03-14T16:17:16.590Z,100221.84
2023-03-14T16:22:19.760Z,100199.03
2023-03-14T16:27:23.694Z,100254.13
2023-03-14T16:32:26.752Z,100264.13
2023-03-14T16:37:29.357Z,100267.91
2023-03-14T16:42:34.830Z,100257.56
2023-03-14T16:47:37.399Z,100268.41
2023-03-14T16:52:39.979Z,100321.94
2023-03-14T16:57:43.874Z,100341.97
2023-03-14T17:02:46.733Z,100351.38
2023-03-14T17:07:49.326Z,100335.50
2023-03-14T17:12:53.309Z,100367.41
2023-03-14T17:17:55.868Z,100390.91
2023-03-14T17:22:58.451Z,100400.41
2023-03-14T17:28:02.432Z,100411.91
2023-03-14T17:33:05.853Z,100415.66
2023-03-14T17:38:08.805Z,100429.59
2023-03-14T17:43:12.733Z,100438.50
2023-03-14T18:38:55.349Z,100579.56
2023-03-14T18:43:59.271Z,100581.75
2023-03-14T18:49:04.290Z,100589.78
2023-03-14T18:54:10.601Z,100606.59
2023-03-14T18:59:15.007Z,100554.50
2023-03-14T19:04:18.497Z,100595.09
2023-03-14T19:09:21.414Z,100635.00
2023-03-14T19:14:25.390Z,100631.03
2023-03-14T19:19:28.039Z,100609.88
2023-03-14T19:24:30.601Z,100656.50
2023-03-14T19:29:39.437Z,100635.19
2023-03-14T19:34:44.063Z,100666.69
2023-03-14T19:39:47.223Z,100669.16
2023-03-14T19:44:53.345Z,100693.03
2023-03-14T19:49:58.067Z,100702.78
2023-03-14T19:55:02.070Z,100688.16
2023-03-14T20:00:11.787Z,100708.63
2023-03-14T20:05:14.971Z,100705.47
2023-03-14T20:10:19.777Z,100634.91
2023-03-14T20:15:24.409Z,100729.31
2023-03-14T20:20:28.957Z,100736.34
2023-03-14T20:25:31.862Z,100735.47
2023-03-14T20:30:35.922Z,100648.63
2023-03-14T20:35:38.956Z,100746.03
2023-03-14T20:40:42.190Z,100746.34
2023-03-14T20:45:52.847Z,100638.41
2023-03-14T20:50:56.396Z,100750.19
2023-03-14T20:55:59.202Z,100760.25
2023-03-14T21:01:03.876Z,100761.59
2023-03-14T21:06:10.329Z,100758.63
2023-03-14T21:11:13.280Z,100768.25
2023-03-14T21:16:17.748Z,100778.53
2023-03-14T21:21:22.064Z,100669.97
2023-03-14T21:26:25.043Z,100779.31
2023-03-14T21:31:29.282Z,100784.19
2023-03-14T21:36:32.577Z,100797.41
2023-03-14T21:41:35.155Z,100801.22
2023-03-14T21:46:39.107Z,100804.09
2023-03-14T21:51:45.828Z,100800.56
2023-03-14T21:56:48.595Z,100802.22
2023-03-14T22:01:53.530Z,100799.22
2023-03-14T22:06:56.585Z,100793.28
2023-03-14T22:11:59.574Z,100793.28
2023-03-14T22:17:04.121Z,100798.44
2023-03-14T22:22:06.874Z,100800.84
2023-03-14T22:27:11.568Z,100806.16
2023-03-14T22:32:17.025Z,100814.75
2023-03-14T22:37:19.625Z,100811.84
2023-03-14T22:42:22.786Z,100805.84
2023-03-14T22:47:27.666Z,100808.03
2023-03-14T22:52:32.158Z,100791.22
2023-03-14T22:57:34.854Z,100804.66
2023-03-14T23:02:38.850Z,100773.94
2023-03-14T23:07:41.600Z,100805.44
2023-03-14T23:12:45.133Z,100800.81
2023-03-14T23:17:49.125Z,100808.88
2023-03-14T23:22:52.216Z,100808.56
2023-03-14T23:27:54.809Z,100856.56
2023-03-14T23:32:58.885Z,100866.38
2023-03-14T23:38:02.345Z,100851.25
2023-03-14T23:43:06.210Z,100865.25
2023-03-14T23:48:10.584Z,100867.25
2023-03-14T23:53:13.754Z,100871.91
2023-03-14T23:58:16.361Z,100873.56
